Time;durP1;ratioP1;P1;durP2;ratioP2;P2;SDS_P1;SDS_P2;PMS_P1;PMS_P2;Temp;Humidity;BMP_temperature;BMP_pressure;BME280_temperature;BME280_humidity;BME280_pressure;Samples;Min_cycle;Max_cycle;Signal;HPM_P1;HPM_P2
2021/04/04 00:01:55;;;;;;;1.33;1.20;;;21.80;58.10;;;;;;5123404;28;20430;-41
2021/04/04 00:04:25;;;;;;;1.50;1.40;;;21.70;59.30;;;;;;5123653;28;20452;-41
2021/04/04 00:06:55;;;;;;;1.80;1.70;;;21.60;60.30;;;;;;5123764;28;20452;-41
2021/04/04 00:09:25;;;;;;;1.50;1.40;;;21.60;60.20;;;;;;5124040;28;20424;-42
2021/04/04 00:11:56;;;;;;;1.60;1.50;;;21.60;59.90;;;;;;5122512;28;20934;-41
2021/04/04 00:14:27;;;;;;;1.57;1.47;;;21.60;59.30;;;;;;5123634;28;20523;-43
2021/04/04 00:16:58;;;;;;;1.97;1.80;;;21.70;59.20;;;;;;5123449;28;20533;-42
2021/04/04 00:19:28;;;;;;;1.53;1.43;;;21.80;59.70;;;;;;5123543;28;20451;-41
2021/04/04 00:21:58;;;;;;;2.33;1.53;;;21.80;60.90;;;;;;5122845;28;20443;-42
2021/04/04 00:24:28;;;;;;;3.20;1.43;;;21.70;60.30;;;;;;5123442;28;20901;-42
2021/04/04 00:26:58;;;;;;;3.20;1.70;;;21.60;59.70;;;;;;5124141;28;20551;-42
2021/04/04 00:29:28;;;;;;;1.77;1.67;;;21.40;60.10;;;;;;5123836;28;20519;-41
2021/04/04 00:31:59;;;;;;;2.67;1.50;;;21.20;62.20;;;;;;5122805;28;20462;-41
2021/04/04 00:34:29;;;;;;;1.73;1.63;;;21.20;62.10;;;;;;5122148;28;20451;-42
2021/04/04 00:36:59;;;;;;;1.70;1.60;;;21.10;62.60;;;;;;5123040;28;20530;-41
2021/04/04 00:39:29;;;;;;;2.80;1.73;;;21.20;63.20;;;;;;5123824;28;20924;-42
2021/04/04 00:41:59;;;;;;;2.17;1.87;;;21.10;61.70;;;;;;5122202;28;20446;-41
2021/04/04 00:44:30;;;;;;;2.10;2.00;;;20.90;63.10;;;;;;5122873;28;20443;-38
2021/04/04 00:47:01;;;;;;;1.80;1.70;;;20.90;62.80;;;;;;5122233;28;20446;-41
2021/04/04 00:49:31;;;;;;;1.83;1.73;;;20.90;63.40;;;;;;5123226;28;20453;-41
2021/04/04 00:52:01;;;;;;;1.93;1.57;;;20.70;61.50;;;;;;5121613;28;20517;-41
2021/04/04 00:54:31;;;;;;;2.10;1.60;;;20.60;63.20;;;;;;5123313;28;20446;-41
2021/04/04 00:57:01;;;;;;;1.63;1.43;;;20.50;64.00;;;;;;5122793;28;20409;-41
2021/04/04 00:59:31;;;;;;;2.67;1.70;;;20.50;63.10;;;;;;5121838;28;20552;-42
2021/04/04 01:02:02;;;;;;;2.53;1.40;;;20.40;63.30;;;;;;5122486;28;20478;-41
2021/04/04 01:04:32;;;;;;;1.77;1.20;;;20.50;62.90;;;;;;5115323;28;20473;-42
2021/04/04 01:07:02;;;;;;;2.30;1.30;;;20.30;61.70;;;;;;5121904;28;20868;-42
2021/04/04 01:09:32;;;;;;;3.67;1.00;;;20.00;60.00;;;;;;5123154;28;20413;-42
2021/04/04 01:12:10;;;;;;;1.40;1.30;;;19.80;60.90;;;;;;5118560;28;20485;-42
2021/04/04 01:14:51;;;;;;;4.00;1.77;;;19.70;61.50;;;;;;5123155;28;20427;-42
2021/04/04 01:17:24;;;;;;;1.57;1.17;;;19.70;62.30;;;;;;5123130;28;20427;-42
2021/04/04 01:20:10;;;;;;;7.50;2.00;;;19.50;62.30;;;;;;5123186;28;20428;-42
2021/04/04 01:23:17;;;;;;;2.50;1.47;;;19.70;61.90;;;;;;5110064;28;20449;-42
2021/04/04 01:25:52;;;;;;;1.10;1.00;;;19.80;61.60;;;;;;5119334;28;20468;-42
2021/04/04 01:28:27;;;;;;;1.10;1.00;;;19.70;61.70;;;;;;5122454;28;20420;-41
2021/04/04 01:30:58;;;;;;;2.40;1.30;;;19.50;61.70;;;;;;5123234;28;20469;-41
2021/04/04 01:33:33;;;;;;;1.40;0.80;;;19.30;62.50;;;;;;5103795;28;20431;-41
2021/04/04 01:36:08;;;;;;;3.70;1.93;;;19.30;63.30;;;;;;5122951;28;20933;-41
2021/04/04 01:38:42;;;;;;;9.03;3.10;;;19.30;63.40;;;;;;5122498;28;20441;-42
2021/04/04 01:41:19;;;;;;;3.00;1.30;;;19.10;62.60;;;;;;5122386;28;20464;-40
2021/04/04 01:44:12;;;;;;;2.03;1.40;;;19.00;63.20;;;;;;5122224;28;20468;-41
2021/04/04 01:46:44;;;;;;;1.97;1.50;;;18.90;63.00;;;;;;5126787;28;20445;-41
2021/04/04 01:49:14;;;;;;;1.70;1.60;;;18.70;63.80;;;;;;5127243;28;20502;-42
2021/04/04 01:51:45;;;;;;;1.77;1.17;;;18.60;63.40;;;;;;5125861;28;20473;-43
2021/04/04 01:54:17;;;;;;;1.20;1.10;;;18.50;62.10;;;;;;5126371;28;20850;-41
2021/04/04 01:56:48;;;;;;;2.03;1.80;;;18.40;62.80;;;;;;5125873;28;20429;-41
2021/04/04 01:59:21;;;;;;;2.23;1.23;;;18.40;62.10;;;;;;5126875;28;20456;-41
2021/04/04 02:01:52;;;;;;;2.00;1.40;;;18.20;61.90;;;;;;5126077;28;20451;-42
2021/04/04 02:04:24;;;;;;;3.20;1.37;;;18.10;61.70;;;;;;5126327;28;20494;-42
2021/04/04 02:06:55;;;;;;;3.07;1.20;;;18.00;59.90;;;;;;5126284;28;20768;-41
2021/04/04 02:09:27;;;;;;;1.23;1.13;;;17.90;61.40;;;;;;5126608;28;20468;-43
2021/04/04 02:11:59;;;;;;;1.30;1.20;;;17.80;62.20;;;;;;5114442;28;20818;-42
2021/04/04 02:14:31;;;;;;;1.93;1.27;;;17.80;61.60;;;;;;5126660;28;20419;-42
2021/04/04 02:17:02;;;;;;;2.10;1.00;;;17.70;61.70;;;;;;5125974;28;20468;-41
2021/04/04 02:19:34;;;;;;;2.23;1.03;;;17.60;62.70;;;;;;5125529;28;20440;-41
2021/04/04 02:22:04;;;;;;;5.20;1.20;;;17.60;62.50;;;;;;5126744;27;20504;-41
2021/04/04 02:24:35;;;;;;;1.43;1.17;;;17.50;61.90;;;;;;5125983;28;20447;-41
2021/04/04 02:27:05;;;;;;;1.57;1.00;;;17.40;61.80;;;;;;5126153;27;20937;-42
2021/04/04 02:29:36;;;;;;;1.53;1.30;;;17.30;63.80;;;;;;5126430;28;20499;-42
2021/04/04 02:32:08;;;;;;;2.57;1.17;;;17.30;63.20;;;;;;5126460;27;20499;-42
2021/04/04 02:34:41;;;;;;;0.97;0.87;;;17.30;63.10;;;;;;5125897;28;20455;-41
2021/04/04 02:37:13;;;;;;;1.80;0.97;;;17.10;62.70;;;;;;5125761;28;20458;-43
2021/04/04 02:39:46;;;;;;;2.07;1.50;;;17.10;62.80;;;;;;5125843;28;20453;-43
2021/04/04 02:42:20;;;;;;;1.73;1.50;;;17.00;63.20;;;;;;5124572;28;20501;-41
2021/04/04 02:44:54;;;;;;;1.40;1.10;;;17.00;63.30;;;;;;5125366;28;20471;-42
2021/04/04 02:47:29;;;;;;;2.77;1.40;;;16.90;64.40;;;;;;5125647;28;20446;-42
2021/04/04 02:50:02;;;;;;;1.83;1.30;;;16.90;64.80;;;;;;5126812;27;20450;-42
2021/04/04 02:52:38;;;;;;;6.63;2.53;;;16.90;65.70;;;;;;5115510;28;20541;-41
2021/04/04 02:55:11;;;;;;;2.77;1.40;;;16.80;66.10;;;;;;5124733;28;20464;-41
2021/04/04 02:57:41;;;;;;;1.90;1.10;;;16.80;64.30;;;;;;5123695;28;20506;-41
2021/04/04 03:00:17;;;;;;;1.90;1.30;;;16.80;64.50;;;;;;5125515;28;20448;-41
2021/04/04 03:02:47;;;;;;;1.90;1.70;;;16.80;65.10;;;;;;5124715;28;20450;-41
2021/04/04 03:05:18;;;;;;;2.70;1.40;;;16.70;65.30;;;;;;5124274;28;20818;-40
2021/04/04 03:07:50;;;;;;;1.60;1.50;;;16.70;66.30;;;;;;5121014;28;20890;-41
2021/04/04 03:10:20;;;;;;;1.90;1.70;;;16.60;65.70;;;;;;5121777;28;20459;-41
2021/04/04 03:12:51;;;;;;;1.97;1.40;;;16.60;66.40;;;;;;5120667;28;20490;-43
2021/04/04 03:15:23;;;;;;;1.67;1.57;;;16.50;65.70;;;;;;5124077;28;20472;-41
2021/04/04 03:17:54;;;;;;;2.33;1.77;;;16.50;66.40;;;;;;5123740;28;20495;-42
2021/04/04 03:20:26;;;;;;;2.00;1.40;;;16.40;67.10;;;;;;5121521;28;20432;-41
2021/04/04 03:22:58;;;;;;;2.80;1.53;;;16.40;66.50;;;;;;5122959;28;20436;-41
2021/04/04 03:25:29;;;;;;;1.57;1.03;;;16.40;67.20;;;;;;5122796;28;20460;-43
2021/04/04 03:28:00;;;;;;;2.63;1.60;;;16.30;68.90;;;;;;5120081;28;20447;-42
2021/04/04 03:30:42;;;;;;;1.30;1.20;;;16.20;68.30;;;;;;5124187;28;20444;-42
2021/04/04 03:33:16;;;;;;;3.17;2.93;;;16.20;69.00;;;;;;5123271;28;20581;-41
2021/04/04 03:35:48;;;;;;;2.27;1.80;;;16.10;69.80;;;;;;5123942;28;20588;-42
2021/04/04 03:38:20;;;;;;;2.47;1.67;;;16.10;70.70;;;;;;5123585;28;20504;-41
2021/04/04 03:40:54;;;;;;;1.97;1.40;;;16.00;71.10;;;;;;5124138;28;20467;-39
2021/04/04 03:43:26;;;;;;;1.50;1.40;;;16.00;71.80;;;;;;5121117;28;20489;-42
2021/04/04 03:46:00;;;;;;;2.00;1.47;;;16.00;71.10;;;;;;5124265;28;20454;-41
2021/04/04 03:48:31;;;;;;;2.27;1.80;;;15.90;71.60;;;;;;5123041;28;20442;-40
2021/04/04 03:51:06;;;;;;;2.50;1.93;;;15.80;72.20;;;;;;5123972;28;20434;-41
2021/04/04 03:53:40;;;;;;;2.07;1.90;;;15.80;72.80;;;;;;5122690;27;20452;-42
2021/04/04 03:56:13;;;;;;;1.60;1.50;;;15.70;73.80;;;;;;5122995;28;20925;-40
2021/04/04 03:58:46;;;;;;;2.70;1.50;;;15.70;73.80;;;;;;5119324;28;20658;-41
2021/04/04 04:01:21;;;;;;;1.90;1.80;;;15.60;74.90;;;;;;5123900;28;20454;-42
2021/04/04 04:03:52;;;;;;;4.37;1.47;;;15.60;74.80;;;;;;5122786;28;20499;-41
2021/04/04 04:06:23;;;;;;;1.70;1.23;;;15.50;74.70;;;;;;5107992;28;20435;-41
2021/04/04 04:08:53;;;;;;;1.80;1.70;;;15.50;75.70;;;;;;5124053;28;20438;-40
2021/04/04 04:11:24;;;;;;;1.70;1.53;;;15.40;76.00;;;;;;5123062;28;20946;-40
2021/04/04 04:13:56;;;;;;;2.13;1.90;;;15.40;76.10;;;;;;5122733;28;20859;-40
2021/04/04 04:16:27;;;;;;;1.83;1.37;;;15.30;76.60;;;;;;5107419;28;20607;-40
2021/04/04 04:18:57;;;;;;;8.37;1.83;;;15.30;77.40;;;;;;5123003;28;20511;-40
2021/04/04 04:21:28;;;;;;;2.33;2.10;;;15.20;78.10;;;;;;5123436;28;20442;-40
2021/04/04 04:23:59;;;;;;;3.00;1.63;;;15.10;79.50;;;;;;5124150;28;20431;-41
2021/04/04 04:26:31;;;;;;;1.60;1.40;;;15.10;79.90;;;;;;5122812;28;20443;-41
2021/04/04 04:29:02;;;;;;;2.07;1.50;;;15.00;79.80;;;;;;5123844;28;20909;-41
2021/04/04 04:31:36;;;;;;;2.53;1.47;;;15.00;81.10;;;;;;5123049;28;20476;-40
2021/04/04 04:34:08;;;;;;;2.23;1.67;;;14.90;81.90;;;;;;5122983;28;20514;-41
2021/04/04 04:36:45;;;;;;;2.23;1.97;;;14.80;83.30;;;;;;5123931;28;20438;-40
2021/04/04 04:39:19;;;;;;;2.73;1.80;;;14.70;84.30;;;;;;5124129;28;20866;-41
2021/04/04 04:41:55;;;;;;;1.77;1.67;;;14.70;84.90;;;;;;5122329;28;20526;-41
2021/04/04 04:44:28;;;;;;;2.80;1.77;;;14.60;85.90;;;;;;5114777;28;20538;-41
2021/04/04 04:47:00;;;;;;;2.27;1.60;;;14.50;86.50;;;;;;5123547;28;20506;-41
2021/04/04 04:49:30;;;;;;;2.53;1.80;;;14.40;87.90;;;;;;5119446;28;20450;-41
2021/04/04 04:52:00;;;;;;;2.17;2.00;;;14.40;87.70;;;;;;5123155;28;20503;-41
2021/04/04 04:54:30;;;;;;;2.27;2.07;;;14.40;88.60;;;;;;5122958;28;20522;-41
2021/04/04 04:57:02;;;;;;;3.27;1.60;;;14.30;89.00;;;;;;5122373;28;20800;-42
2021/04/04 04:59:32;;;;;;;3.53;1.60;;;14.20;90.00;;;;;;5123391;28;20475;-41
2021/04/04 05:02:06;;;;;;;1.50;1.40;;;14.20;90.30;;;;;;5122615;28;20449;-41
2021/04/04 05:04:36;;;;;;;2.10;1.90;;;14.10;90.60;;;;;;5122132;28;20475;-41
2021/04/04 05:07:08;;;;;;;2.10;1.97;;;14.10;91.20;;;;;;5123259;28;20529;-41
2021/04/04 05:09:41;;;;;;;2.70;2.13;;;14.00;91.40;;;;;;5123332;28;20459;-41
2021/04/04 05:12:16;;;;;;;2.13;1.50;;;14.00;91.40;;;;;;5121668;28;20481;-41
2021/04/04 05:14:53;;;;;;;2.33;1.23;;;13.90;91.80;;;;;;5123254;28;20453;-41
2021/04/04 05:17:39;;;;;;;2.63;1.83;;;13.80;92.60;;;;;;5122317;28;20511;-41
2021/04/04 05:20:17;;;;;;;2.07;1.50;;;13.80;92.70;;;;;;5126558;28;20453;-41
2021/04/04 05:22:48;;;;;;;1.90;1.50;;;13.80;93.10;;;;;;5126784;28;20524;-42
2021/04/04 05:25:18;;;;;;;4.47;1.67;;;13.80;93.50;;;;;;5126799;28;20939;-41
2021/04/04 05:27:48;;;;;;;2.73;1.40;;;13.80;93.60;;;;;;5126684;28;20446;-40
2021/04/04 05:30:19;;;;;;;1.73;1.50;;;13.70;93.80;;;;;;5126804;28;20449;-40
2021/04/04 05:32:51;;;;;;;1.53;1.40;;;13.60;94.60;;;;;;5124246;28;20972;-41
2021/04/04 05:35:22;;;;;;;2.40;1.63;;;13.60;95.20;;;;;;5126904;28;20453;-40
2021/04/04 05:37:54;;;;;;;1.20;1.10;;;13.60;95.50;;;;;;5127002;28;20479;-40
2021/04/04 05:40:25;;;;;;;1.10;1.10;;;13.70;95.40;;;;;;5127357;28;20586;-41
2021/04/04 05:42:59;;;;;;;1.90;1.30;;;13.60;95.00;;;;;;5125799;28;20446;-41
2021/04/04 05:45:40;;;;;;;1.57;1.47;;;13.60;95.60;;;;;;5126550;28;20464;-41
2021/04/04 05:48:25;;;;;;;3.63;1.63;;;13.60;95.60;;;;;;5126752;28;20564;-41
2021/04/04 05:51:24;;;;;;;1.63;1.50;;;13.50;95.90;;;;;;5126717;28;21021;-39
2021/04/04 05:54:34;;;;;;;1.10;1.10;;;13.50;96.10;;;;;;5117109;28;20449;-39
2021/04/04 05:57:32;;;;;;;1.77;1.30;;;13.40;96.50;;;;;;5125351;28;20512;-39
2021/04/04 06:00:11;;;;;;;2.87;1.57;;;13.50;96.60;;;;;;5127285;28;20522;-41
2021/04/04 06:03:31;;;;;;;2.30;1.50;;;13.40;97.20;;;;;;5121410;28;20491;-40
2021/04/04 06:06:52;;;;;;;2.77;2.10;;;13.40;97.30;;;;;;5118307;28;20470;-40
2021/04/04 06:10:06;;;;;;;2.23;1.80;;;13.30;97.90;;;;;;5112325;28;20497;-40
2021/04/04 06:12:59;;;;;;;2.80;1.60;;;13.30;98.60;;;;;;5125386;28;20477;-38
2021/04/04 06:15:39;;;;;;;3.10;1.77;;;13.30;99.00;;;;;;5115224;28;20445;-39
2021/04/04 06:18:32;;;;;;;2.23;1.70;;;13.30;99.60;;;;;;5126416;28;20441;-39
2021/04/04 06:21:39;;;;;;;;;;;;;;;;;;;;;
2021/04/04 06:24:47;;;;;;;2.70;2.07;;;13.30;99.90;;;;;;5126246;28;20453;-39
2021/04/04 06:27:26;;;;;;;2.43;1.70;;;13.20;99.90;;;;;;5125013;28;20491;-37
2021/04/04 06:30:21;;;;;;;2.23;2.00;;;13.20;99.90;;;;;;5125857;28;20832;-39
2021/04/04 06:33:09;;;;;;;2.67;2.30;;;13.20;99.90;;;;;;5125865;28;20980;-36
2021/04/04 06:36:02;;;;;;;3.97;2.10;;;13.10;99.90;;;;;;5126274;28;20516;-40
2021/04/04 06:39:16;;;;;;;5.53;1.80;;;13.10;99.90;;;;;;5126016;28;20445;-40
2021/04/04 06:42:11;;;;;;;2.40;1.83;;;13.00;99.90;;;;;;5116475;28;20865;-41
2021/04/04 06:44:58;;;;;;;2.70;1.77;;;12.90;99.90;;;;;;5126099;28;20479;-39
2021/04/04 06:47:39;;;;;;;1.90;1.70;;;12.90;99.90;;;;;;5124243;28;20453;-40
2021/04/04 06:54:18;;;;;;;6.03;2.20;;;12.80;99.90;;;;;;5107272;28;20480;-40
2021/04/04 06:57:27;;;;;;;1.70;1.60;;;12.70;99.90;;;;;;5123460;28;20450;-40
2021/04/04 07:00:05;;;;;;;5.03;2.07;;;12.70;99.90;;;;;;5126331;28;20451;-38
2021/04/04 07:02:50;;;;;;;2.57;1.83;;;12.60;99.90;;;;;;5126135;28;20932;-38
2021/04/04 07:05:22;;;;;;;4.87;1.90;;;12.50;99.90;;;;;;5125625;28;20446;-39
2021/04/04 07:08:19;;;;;;;2.90;1.80;;;12.50;99.90;;;;;;5125548;28;20803;-41
2021/04/04 07:10:56;;;;;;;3.30;2.00;;;12.60;99.90;;;;;;5076114;28;20457;-38
2021/04/04 07:14:11;;;;;;;2.73;1.93;;;12.60;99.90;;;;;;5123831;28;20599;-40
2021/04/04 07:17:14;;;;;;;2.20;2.00;;;12.40;99.90;;;;;;5121724;28;20461;-40
2021/04/04 07:20:10;;;;;;;1.90;1.40;;;12.30;99.90;;;;;;5110595;28;20445;-41
2021/04/04 07:23:05;;;;;;;2.10;1.97;;;12.30;99.90;;;;;;5124988;28;20503;-39
2021/04/04 07:25:42;;;;;;;1.70;1.60;;;12.20;99.90;;;;;;5122615;28;20449;-40
2021/04/04 07:28:25;;;;;;;2.03;1.70;;;12.20;99.90;;;;;;5120308;28;20453;-40
2021/04/04 07:30:58;;;;;;;2.43;1.97;;;12.10;99.90;;;;;;5124971;28;20839;-40
2021/04/04 07:33:40;;;;;;;3.17;1.57;;;12.10;99.90;;;;;;5123638;28;20480;-39
2021/04/04 07:36:18;;;;;;;2.03;1.83;;;12.10;99.90;;;;;;5124742;28;20449;-40
2021/04/04 07:38:58;;;;;;;2.80;1.60;;;12.00;99.90;;;;;;5124707;28;20533;-39
2021/04/04 07:41:36;;;;;;;3.33;1.87;;;12.00;99.90;;;;;;5107182;28;20445;-39
2021/04/04 07:44:15;;;;;;;5.10;1.60;;;11.90;99.90;;;;;;5124418;28;20533;-38
2021/04/04 07:47:23;;;;;;;1.50;1.40;;;11.90;99.90;;;;;;5118383;28;20502;-39
2021/04/04 07:50:00;;;;;;;3.90;2.00;;;11.90;99.90;;;;;;5110987;28;20449;-40
2021/04/04 07:52:34;;;;;;;4.03;2.57;;;11.90;99.90;;;;;;5124088;28;20508;-39
2021/04/04 07:55:12;;;;;;;3.03;1.90;;;12.00;99.90;;;;;;5124760;28;20477;-35
2021/04/04 07:57:52;;;;;;;1.90;1.80;;;12.00;99.90;;;;;;5107808;28;20785;-41
2021/04/04 08:00:24;;;;;;;2.80;1.60;;;12.10;99.90;;;;;;5125047;28;20438;-39
2021/04/04 08:03:04;;;;;;;2.53;1.57;;;12.10;99.90;;;;;;5123624;28;20468;-40
2021/04/04 08:05:40;;;;;;;2.80;1.70;;;12.10;99.90;;;;;;5124770;28;20445;-38
2021/04/04 08:08:14;;;;;;;2.63;1.80;;;12.00;99.90;;;;;;5123485;28;20449;-40
2021/04/04 08:10:58;;;;;;;4.27;2.07;;;12.10;99.90;;;;;;5124760;28;20453;-41
2021/04/04 08:13:37;;;;;;;2.70;2.00;;;12.00;99.90;;;;;;5122376;28;20480;-40
2021/04/04 08:16:10;;;;;;;1.70;1.60;;;11.90;99.90;;;;;;5124067;28;20437;-42
2021/04/04 08:18:42;;;;;;;2.60;2.17;;;11.90;99.90;;;;;;5123763;28;20435;-40
2021/04/04 08:21:20;;;;;;;3.50;2.13;;;11.80;99.90;;;;;;5123054;28;20443;-39
2021/04/04 08:23:55;;;;;;;3.80;2.13;;;11.80;99.90;;;;;;5124169;28;20904;-35
2021/04/04 08:26:28;;;;;;;4.13;2.17;;;11.70;99.90;;;;;;5122284;28;21238;-39
2021/04/04 08:29:04;;;;;;;2.83;1.83;;;11.70;99.90;;;;;;5123353;28;20441;-40
2021/04/04 08:31:38;;;;;;;3.60;2.30;;;11.60;99.90;;;;;;5123613;28;20503;-40
2021/04/04 08:34:12;;;;;;;2.53;1.90;;;11.50;99.90;;;;;;5124290;28;20741;-40
2021/04/04 08:36:48;;;;;;;2.53;1.73;;;11.50;99.90;;;;;;5123467;28;20206;-36
2021/04/04 08:39:22;;;;;;;3.03;2.22;;;11.50;99.90;;;;;;5122907;28;20199;-39
2021/04/04 08:41:52;;;;;;;4.30;2.30;;;11.50;99.90;;;;;;5122015;28;20203;-39
2021/04/04 08:44:25;;;;;;;3.10;2.80;;;11.40;99.90;;;;;;5120851;28;20533;-39
2021/04/04 08:46:59;;;;;;;3.13;1.73;;;11.40;99.90;;;;;;5123763;28;21691;-40
2021/04/04 08:49:30;;;;;;;2.00;1.83;;;11.30;99.90;;;;;;5123584;28;20444;-40
2021/04/04 08:52:07;;;;;;;3.17;2.00;;;11.10;99.90;;;;;;5122382;28;20793;-40
2021/04/04 08:54:39;;;;;;;3.57;1.60;;;11.10;99.90;;;;;;5122010;28;20447;-40
2021/04/04 08:57:09;;;;;;;2.00;1.80;;;11.00;99.90;;;;;;5122509;28;20525;-40
2021/04/04 08:59:39;;;;;;;1.97;1.83;;;11.00;99.90;;;;;;5122380;28;20451;-37
2021/04/04 09:02:13;;;;;;;4.00;2.33;;;10.80;99.90;;;;;;5122885;28;20456;-37
2021/04/04 09:04:43;;;;;;;4.35;2.55;;;10.80;99.90;;;;;;5123379;28;20449;-39
2021/04/04 09:07:19;;;;;;;3.37;1.57;;;10.80;99.90;;;;;;5122038;28;20298;-39
2021/04/04 09:09:50;;;;;;;3.67;1.70;;;10.70;99.90;;;;;;5123060;28;20548;-41
2021/04/04 09:12:22;;;;;;;2.57;2.37;;;10.60;99.90;;;;;;5122113;28;20226;-41
2021/04/04 09:14:53;;;;;;;3.33;1.80;;;10.50;99.90;;;;;;5123022;28;20477;-40
2021/04/04 09:17:23;;;;;;;4.82;2.30;;;10.50;99.90;;;;;;5122824;28;20315;-41
2021/04/04 09:20:00;;;;;;;6.72;2.08;;;10.50;99.90;;;;;;5122902;28;20205;-40
2021/04/04 09:22:33;;;;;;;3.83;2.20;;;10.50;99.90;;;;;;5122427;28;20295;-40
2021/04/04 09:25:08;;;;;;;3.37;2.03;;;10.40;99.90;;;;;;5122871;28;20466;-41
2021/04/04 09:27:40;;;;;;;2.77;1.83;;;10.30;99.90;;;;;;5103671;28;20509;-41
2021/04/04 09:30:23;;;;;;;2.00;1.60;;;10.30;99.90;;;;;;5122736;28;20567;-41
2021/04/04 09:32:55;;;;;;;2.10;1.90;;;10.20;99.90;;;;;;5122500;28;20486;-41
2021/04/04 09:35:28;;;;;;;2.05;1.83;;;10.20;99.90;;;;;;5122498;28;20630;-41
2021/04/04 09:38:04;;;;;;;2.80;2.15;;;10.10;99.90;;;;;;5123285;28;20226;-40
2021/04/04 09:40:35;;;;;;;3.78;2.30;;;10.10;99.90;;;;;;5122532;28;20263;-38
2021/04/04 09:43:11;;;;;;;5.93;1.92;;;10.00;99.90;;;;;;5121346;28;20274;-39
2021/04/04 09:45:42;;;;;;;2.10;1.77;;;10.00;99.90;;;;;;5122757;28;20205;-39
2021/04/04 09:48:19;;;;;;;6.18;2.20;;;9.90;99.90;;;;;;5122704;28;20266;-40
2021/04/04 09:50:50;;;;;;;4.28;2.00;;;9.80;99.90;;;;;;5122740;28;20180;-39
2021/04/04 09:53:39;;;;;;;3.33;2.03;;;9.90;99.90;;;;;;5122646;28;20224;-39
2021/04/04 09:56:13;;;;;;;3.25;2.22;;;9.90;99.90;;;;;;5122919;28;20185;-40
2021/04/04 09:58:44;;;;;;;2.28;2.08;;;9.90;99.90;;;;;;5122163;28;20622;-40
2021/04/04 10:01:21;;;;;;;4.57;1.85;;;9.90;99.90;;;;;;5122443;28;20287;-38
2021/04/04 10:03:59;;;;;;;3.05;2.33;;;9.80;99.90;;;;;;5122597;28;20201;-39
2021/04/04 10:06:30;;;;;;;2.83;1.98;;;9.80;99.90;;;;;;5126095;28;20192;-39
2021/04/04 10:09:04;;;;;;;6.22;2.20;;;9.90;99.90;;;;;;5121199;28;20197;-40
2021/04/04 10:11:34;;;;;;;3.00;2.13;;;9.90;99.90;;;;;;5124534;28;20188;-40
2021/04/04 10:14:08;;;;;;;3.38;2.30;;;10.00;99.90;;;;;;5125259;28;20428;-39
2021/04/04 10:16:39;;;;;;;2.75;2.47;;;10.10;99.90;;;;;;5125443;28;20293;-39
2021/04/04 10:19:11;;;;;;;2.60;2.35;;;10.10;99.90;;;;;;5125836;28;20201;-39
2021/04/04 10:21:42;;;;;;;2.63;2.08;;;10.20;99.90;;;;;;5125593;28;20219;-38
2021/04/04 10:24:31;;;;;;;3.40;2.38;;;10.30;99.90;;;;;;5126195;28;20188;-39
2021/04/04 10:27:23;;;;;;;3.78;2.40;;;10.30;99.90;;;;;;5122200;28;20202;-40
2021/04/04 10:30:13;;;;;;;5.20;2.25;;;10.30;99.90;;;;;;5123238;28;20192;-39
2021/04/04 10:32:44;;;;;;;4.70;3.05;;;10.30;99.90;;;;;;5126106;28;20238;-40
2021/04/04 10:35:27;;;;;;;4.00;2.38;;;10.20;99.90;;;;;;5125989;28;20201;-40
2021/04/04 10:38:04;;;;;;;2.65;2.00;;;10.10;99.90;;;;;;5125677;28;20204;-39
2021/04/04 10:40:47;;;;;;;2.95;2.20;;;10.10;99.90;;;;;;5121391;28;20302;-38
2021/04/04 10:43:19;;;;;;;3.92;2.45;;;10.00;99.90;;;;;;5124744;28;20231;-39
2021/04/04 10:46:04;;;;;;;3.28;1.70;;;10.10;99.90;;;;;;5125549;28;20206;-39
2021/04/04 10:48:36;;;;;;;4.80;2.50;;;10.10;99.90;;;;;;5119431;28;20255;-40
2021/04/04 10:51:08;;;;;;;5.45;2.45;;;10.10;99.90;;;;;;5125286;28;20283;-40
2021/04/04 10:53:39;;;;;;;2.70;2.22;;;10.00;99.90;;;;;;5125433;28;20548;-39
2021/04/04 10:56:12;;;;;;;3.00;1.65;;;10.00;99.90;;;;;;5125623;28;20208;-40
2021/04/04 10:58:43;;;;;;;2.47;2.00;;;10.10;99.90;;;;;;5109850;28;20208;-39
2021/04/04 11:01:14;;;;;;;4.53;1.70;;;10.00;99.90;;;;;;5124653;28;20345;-39
2021/04/04 11:03:46;;;;;;;2.75;2.10;;;9.90;99.90;;;;;;5124877;28;20567;-40
2021/04/04 11:06:17;;;;;;;2.30;2.08;;;9.80;99.90;;;;;;5125569;28;20718;-40
2021/04/04 11:08:47;;;;;;;3.58;2.30;;;9.80;99.90;;;;;;5124335;28;20243;-37
2021/04/04 11:11:20;;;;;;;2.05;1.85;;;9.70;99.90;;;;;;5124652;28;20645;-38
2021/04/04 11:13:52;;;;;;;2.22;1.98;;;9.70;99.90;;;;;;5125025;28;20293;-37
2021/04/04 11:16:27;;;;;;;4.30;2.25;;;9.70;99.90;;;;;;5123372;28;20211;-40
2021/04/04 11:18:59;;;;;;;2.53;2.33;;;9.60;99.90;;;;;;5121444;28;20194;-40
2021/04/04 11:21:38;;;;;;;2.20;1.98;;;9.60;99.90;;;;;;5124967;28;20192;-40
2021/04/04 11:24:13;;;;;;;3.15;2.15;;;9.60;99.90;;;;;;5125194;28;20205;-39
2021/04/04 11:26:51;;;;;;;2.30;2.10;;;9.60;99.90;;;;;;5122868;28;20203;-40
2021/04/04 11:29:23;;;;;;;2.95;2.05;;;9.60;99.90;;;;;;5118076;28;20652;-40
2021/04/04 11:31:54;;;;;;;2.38;2.10;;;9.60;99.90;;;;;;5124221;28;20249;-40
2021/04/04 11:34:26;;;;;;;3.53;2.13;;;9.70;99.90;;;;;;5124806;28;20288;-40
2021/04/04 11:36:56;;;;;;;2.35;2.08;;;9.70;99.90;;;;;;5124365;28;20204;-40
2021/04/04 11:39:26;;;;;;;2.20;2.00;;;9.70;99.90;;;;;;5117825;28;20208;-39
2021/04/04 11:42:00;;;;;;;2.40;2.05;;;9.60;99.90;;;;;;5123428;28;20204;-39
2021/04/04 11:44:33;;;;;;;2.75;2.35;;;9.50;99.90;;;;;;5109687;28;20270;-37
2021/04/04 11:47:05;;;;;;;3.92;2.25;;;9.50;99.90;;;;;;5124000;28;20208;-37
2021/04/04 11:49:44;;;;;;;3.33;2.08;;;9.50;99.90;;;;;;5124451;28;20258;-39
2021/04/04 11:52:36;;;;;;;2.40;2.20;;;9.50;99.90;;;;;;5123856;28;20219;-39
2021/04/04 11:55:08;;;;;;;3.30;2.40;;;9.50;99.90;;;;;;5123992;28;20230;-40
2021/04/04 11:57:42;;;;;;;4.82;2.00;;;9.50;99.90;;;;;;5123312;28;20195;-40
2021/04/04 12:00:28;;;;;;;4.07;2.75;;;9.50;99.90;;;;;;5123156;28;20196;-37
2021/04/04 12:03:01;;;;;;;1.95;1.85;;;9.50;99.90;;;;;;5124175;28;20254;-39
2021/04/04 12:05:36;;;;;;;2.67;2.15;;;9.50;99.90;;;;;;5123370;28;20192;-39
2021/04/04 12:08:07;;;;;;;1.75;1.65;;;9.60;99.90;;;;;;5123730;28;20253;-39
2021/04/04 12:10:38;;;;;;;2.30;2.10;;;9.70;99.90;;;;;;5124518;28;20191;-40
2021/04/04 12:13:16;;;;;;;4.25;2.45;;;9.70;99.90;;;;;;5123156;28;20272;-38
2021/04/04 12:15:46;;;;;;;3.13;2.67;;;9.80;99.90;;;;;;5123105;28;20204;-39
2021/04/04 12:18:16;;;;;;;3.85;2.35;;;9.80;99.90;;;;;;5123794;28;20254;-37
2021/04/04 12:20:46;;;;;;;2.88;2.00;;;9.80;99.90;;;;;;5123629;28;20208;-39
2021/04/04 12:23:18;;;;;;;3.33;1.88;;;9.80;99.90;;;;;;5123092;28;20220;-39
2021/04/04 12:25:48;;;;;;;3.95;2.28;;;9.90;99.90;;;;;;5122998;28;20201;-40
2021/04/04 12:28:19;;;;;;;2.85;2.20;;;9.90;99.90;;;;;;5122993;28;20554;-39
2021/04/04 12:30:50;;;;;;;2.45;1.88;;;9.90;99.90;;;;;;5123009;28;20270;-40
2021/04/04 12:33:20;;;;;;;3.17;2.20;;;9.90;99.90;;;;;;5121592;28;20220;-40
2021/04/04 12:35:52;;;;;;;2.15;1.65;;;10.00;99.90;;;;;;5123563;28;20233;-40
2021/04/04 12:38:23;;;;;;;2.03;1.80;;;10.00;99.90;;;;;;5122719;28;20214;-39
2021/04/04 12:40:53;;;;;;;1.98;1.75;;;10.00;99.90;;;;;;5123791;28;20196;-39
2021/04/04 12:43:25;;;;;;;1.75;1.60;;;10.00;99.90;;;;;;5122648;28;20225;-40
2021/04/04 12:45:56;;;;;;;2.17;1.98;;;10.00;99.90;;;;;;5123517;28;20213;-40
2021/04/04 12:48:27;;;;;;;2.50;1.63;;;10.00;99.90;;;;;;5122648;28;20240;-39
2021/04/04 12:51:00;;;;;;;2.35;2.10;;;10.00;99.90;;;;;;5123189;28;20209;-40
2021/04/04 12:53:32;;;;;;;1.65;1.40;;;10.10;99.90;;;;;;5116899;28;21671;-39
2021/04/04 12:56:04;;;;;;;1.65;1.50;;;10.10;99.90;;;;;;5123768;28;20202;-40
2021/04/04 12:58:36;;;;;;;2.45;1.73;;;10.10;99.90;;;;;;5122036;28;20209;-40
2021/04/04 13:01:14;;;;;;;2.90;1.50;;;10.00;99.90;;;;;;5122402;28;20240;-41
2021/04/04 13:03:45;;;;;;;2.50;1.55;;;9.90;99.90;;;;;;5116960;28;20535;-40
2021/04/04 13:06:21;;;;;;;2.70;1.40;;;9.90;99.90;;;;;;5123066;28;20216;-39
2021/04/04 13:08:52;;;;;;;1.58;1.48;;;9.80;99.90;;;;;;5123086;28;20593;-39
2021/04/04 13:11:22;;;;;;;1.58;1.45;;;9.70;99.90;;;;;;5121798;28;20197;-38
2021/04/04 13:13:53;;;;;;;1.60;1.50;;;9.70;99.90;;;;;;5108140;28;20298;-39
2021/04/04 13:16:28;;;;;;;1.50;1.40;;;9.60;99.90;;;;;;5122519;28;20667;-39
2021/04/04 13:18:58;;;;;;;1.67;1.50;;;9.50;99.90;;;;;;5122942;28;20200;-39
2021/04/04 13:21:31;;;;;;;2.95;1.70;;;9.50;99.90;;;;;;5122367;28;20639;-39
2021/04/04 13:24:02;;;;;;;1.85;1.58;;;9.40;99.90;;;;;;5122536;28;20241;-38
2021/04/04 13:26:33;;;;;;;3.10;1.33;;;9.40;99.90;;;;;;5112693;28;20192;-39
2021/04/04 13:29:06;;;;;;;1.58;1.48;;;9.40;99.90;;;;;;5122557;28;20208;-39
2021/04/04 13:31:37;;;;;;;1.63;1.52;;;9.30;99.90;;;;;;5121836;28;20227;-38
2021/04/04 13:34:09;;;;;;;1.30;1.20;;;9.20;99.90;;;;;;5122785;28;20216;-38
2021/04/04 13:36:56;;;;;;;1.70;1.60;;;9.20;99.90;;;;;;5122608;28;20200;-37
2021/04/04 13:39:32;;;;;;;1.92;1.63;;;9.10;99.90;;;;;;5123173;28;20227;-40